Time;durP1;ratioP1;P1;durP2;ratioP2;P2;SDS_P1;SDS_P2;PMS_P1;PMS_P2;Temp;Humidity;BMP_temperature;BMP_pressure;BME280_temperature;BME280_humidity;BME280_pressure;Samples;Min_cycle;Max_cycle;Signal;HPM_P1;HPM_P2
2021/10/02 00:45:39;;;;;;;10.70;9.45;;;16.30;65.40;;;;;;5056145;28;20031;-69
2021/10/02 00:48:06;;;;;;;11.93;10.05;;;16.20;65.80;;;;;;5055877;28;20028;-68
2021/10/02 00:50:32;;;;;;;14.77;10.35;;;16.20;65.20;;;;;;5055919;28;20031;-68
2021/10/02 00:52:58;;;;;;;13.18;10.55;;;16.20;64.80;;;;;;5055839;28;20025;-70
2021/10/02 00:55:23;;;;;;;13.77;10.93;;;16.30;64.90;;;;;;5055746;28;20029;-69
2021/10/02 00:57:50;;;;;;;12.63;10.60;;;16.30;64.60;;;;;;5055138;28;20465;-69
2021/10/02 01:00:16;;;;;;;11.95;10.70;;;16.30;64.40;;;;;;5052496;28;20046;-69
2021/10/02 01:02:47;;;;;;;12.48;10.65;;;16.30;64.80;;;;;;5052965;28;20548;-69
2021/10/02 01:05:31;;;;;;;12.90;10.27;;;16.30;64.80;;;;;;5054382;28;20083;-69
2021/10/02 01:08:13;;;;;;;12.15;10.85;;;16.40;64.70;;;;;;5055885;28;20385;-69
2021/10/02 01:10:48;;;;;;;12.52;10.50;;;16.30;64.40;;;;;;5055242;28;20086;-69
2021/10/02 01:13:26;;;;;;;12.35;11.05;;;16.30;64.50;;;;;;5055082;28;20037;-69
2021/10/02 01:16:10;;;;;;;13.23;10.90;;;16.40;64.30;;;;;;5055273;28;20385;-68
2021/10/02 01:18:45;;;;;;;13.98;11.13;;;16.40;64.20;;;;;;5053990;28;20032;-69
2021/10/02 01:21:48;;;;;;;13.35;10.68;;;16.30;64.10;;;;;;5055068;28;20040;-68
2021/10/02 01:24:14;;;;;;;12.75;11.02;;;16.30;64.30;;;;;;5055400;28;20104;-68
2021/10/02 01:27:02;;;;;;;15.52;11.52;;;16.30;65.10;;;;;;5055219;28;20440;-69
2021/10/02 01:29:30;;;;;;;13.55;11.65;;;16.30;65.30;;;;;;5053604;28;20028;-68
2021/10/02 01:32:07;;;;;;;12.80;11.30;;;16.20;65.00;;;;;;5055080;28;20155;-68
2021/10/02 01:34:43;;;;;;;14.05;11.48;;;16.20;65.60;;;;;;5055105;28;20059;-69
2021/10/02 01:37:50;;;;;;;12.90;10.88;;;16.20;64.90;;;;;;5054802;28;20485;-68
2021/10/02 01:48:20;;;;;;;11.05;9.88;;;16.00;64.90;;;;;;5054987;28;20445;-68
2021/10/02 01:50:50;;;;;;;12.90;10.80;;;16.00;65.10;;;;;;5054530;28;20029;-68
2021/10/02 01:53:17;;;;;;;14.48;10.73;;;16.00;65.70;;;;;;5054558;28;20037;-69
2021/10/02 01:55:44;;;;;;;13.00;9.55;;;15.90;65.50;;;;;;5054255;28;20115;-70
2021/10/02 01:58:16;;;;;;;14.07;9.68;;;15.90;66.00;;;;;;5054114;28;20519;-68
2021/10/02 02:00:45;;;;;;;15.05;10.13;;;15.80;65.90;;;;;;5054669;28;20017;-68
2021/10/02 02:03:15;;;;;;;11.65;10.25;;;15.80;65.60;;;;;;5054714;28;20432;-69
2021/10/02 02:05:42;;;;;;;14.80;11.88;;;15.80;65.40;;;;;;5054636;28;20032;-69
2021/10/02 02:08:13;;;;;;;13.82;11.13;;;15.70;65.70;;;;;;5054647;28;20062;-68
2021/10/02 02:10:41;;;;;;;12.25;10.52;;;15.60;66.20;;;;;;5054223;28;20470;-69
2021/10/02 02:13:10;;;;;;;10.35;9.30;;;15.60;65.60;;;;;;5054357;28;20033;-69
2021/10/02 02:15:38;;;;;;;13.52;10.88;;;15.60;66.10;;;;;;5054588;28;20021;-69
2021/10/02 02:18:06;;;;;;;12.55;9.75;;;15.50;66.20;;;;;;5054647;28;20163;-69
2021/10/02 02:20:36;;;;;;;18.23;10.93;;;15.50;66.60;;;;;;5054153;28;20021;-69
2021/10/02 02:23:03;;;;;;;15.63;11.23;;;15.50;66.30;;;;;;5054258;28;20017;-68
2021/10/02 02:25:29;;;;;;;17.30;11.50;;;15.40;66.30;;;;;;5054402;28;20025;-69
2021/10/02 02:27:56;;;;;;;14.65;11.25;;;15.40;66.20;;;;;;5053175;28;20029;-69
2021/10/02 02:30:22;;;;;;;13.70;11.07;;;15.40;66.30;;;;;;5084428;23;20555;-68
2021/10/02 02:32:50;;;;;;;16.13;11.48;;;15.40;66.40;;;;;;5074062;28;20024;-73
2021/10/02 02:35:19;;;;;;;12.15;10.80;;;15.40;66.30;;;;;;5073885;28;20020;-68
2021/10/02 02:37:45;;;;;;;12.93;10.93;;;15.30;66.10;;;;;;5073956;28;20458;-68
2021/10/02 02:40:11;;;;;;;13.00;10.80;;;15.30;66.40;;;;;;5073635;28;20031;-68
2021/10/02 02:42:38;;;;;;;14.52;11.18;;;15.30;66.50;;;;;;5073677;28;20025;-68
2021/10/02 02:45:05;;;;;;;14.02;11.32;;;15.20;66.70;;;;;;5073896;28;20028;-67
2021/10/02 02:47:32;;;;;;;13.93;11.38;;;15.30;66.30;;;;;;5073759;28;20094;-68
2021/10/02 02:50:08;;;;;;;13.07;11.63;;;15.20;66.30;;;;;;5073493;28;20520;-68
2021/10/02 02:52:58;;;;;;;12.40;11.10;;;15.20;66.40;;;;;;5073546;28;20020;-67
2021/10/02 02:55:27;;;;;;;11.95;10.65;;;15.20;67.80;;;;;;5073506;28;20033;-68
2021/10/02 02:58:01;;;;;;;13.75;10.85;;;15.20;67.70;;;;;;5073438;28;20020;-68
2021/10/02 03:00:27;;;;;;;12.80;10.93;;;15.10;67.40;;;;;;5073560;28;20039;-67
2021/10/02 03:03:10;;;;;;;15.77;12.43;;;15.10;67.20;;;;;;5073400;28;20025;-67
2021/10/02 03:05:39;;;;;;;12.82;10.90;;;15.10;66.90;;;;;;5073657;28;20050;-67
2021/10/02 03:08:09;;;;;;;14.93;11.82;;;15.10;67.50;;;;;;5073485;28;20021;-68
2021/10/02 03:10:37;;;;;;;13.80;11.75;;;15.10;67.70;;;;;;5073297;28;20396;-68
2021/10/02 03:13:06;;;;;;;13.32;11.82;;;15.00;67.80;;;;;;5073250;28;20035;-68
2021/10/02 03:15:35;;;;;;;14.02;12.20;;;15.00;67.60;;;;;;5073340;28;20021;-67
2021/10/02 03:18:01;;;;;;;14.43;12.30;;;15.00;67.60;;;;;;5073333;28;20031;-68
2021/10/02 03:20:29;;;;;;;16.55;12.35;;;15.00;67.50;;;;;;5073311;28;20020;-68
2021/10/02 03:22:56;;;;;;;13.48;11.75;;;15.00;68.10;;;;;;5073209;28;20019;-67
2021/10/02 03:25:29;;;;;;;19.90;11.98;;;15.00;68.10;;;;;;5073150;28;20028;-67
2021/10/02 03:27:57;;;;;;;16.35;11.82;;;15.00;68.00;;;;;;5073134;28;20032;-68
2021/10/02 03:30:24;;;;;;;15.68;12.55;;;14.90;67.80;;;;;;5072956;28;20063;-68
2021/10/02 03:32:50;;;;;;;16.70;12.50;;;14.90;67.80;;;;;;5072831;28;20029;-68
2021/10/02 03:35:18;;;;;;;15.25;12.10;;;14.90;68.20;;;;;;5073091;28;20028;-67
2021/10/02 03:37:45;;;;;;;16.77;12.93;;;14.90;68.40;;;;;;5073238;28;20024;-67
2021/10/02 03:40:11;;;;;;;14.68;12.40;;;14.90;68.90;;;;;;5072968;28;20032;-68
2021/10/02 03:42:45;;;;;;;16.58;11.65;;;14.80;68.90;;;;;;5072890;28;20481;-68
2021/10/02 03:45:11;;;;;;;12.90;11.50;;;14.80;69.10;;;;;;5072927;28;20027;-67
2021/10/02 03:47:36;;;;;;;14.27;11.38;;;14.80;69.50;;;;;;5073090;28;20100;-67
2021/10/02 03:50:04;;;;;;;15.45;11.82;;;14.80;68.70;;;;;;5072920;28;20024;-68
2021/10/02 03:52:30;;;;;;;14.05;11.50;;;14.80;68.10;;;;;;5073881;28;20036;-68
2021/10/02 03:54:56;;;;;;;14.35;11.77;;;14.80;67.90;;;;;;5077451;28;20504;-68
2021/10/02 03:57:21;;;;;;;14.07;11.02;;;14.80;67.80;;;;;;5077124;28;20024;-68
2021/10/02 03:59:47;;;;;;;15.10;11.45;;;14.80;67.80;;;;;;5076974;28;20020;-68
2021/10/02 04:02:12;;;;;;;14.35;11.88;;;14.80;77.50;;;;;;5076827;28;20150;-68
2021/10/02 04:04:38;;;;;;;14.45;11.23;;;14.70;69.30;;;;;;5076832;28;20143;-68
2021/10/02 04:07:04;;;;;;;12.25;10.95;;;14.60;68.80;;;;;;5077021;28;20017;-68
2021/10/02 04:09:29;;;;;;;16.60;11.63;;;14.60;68.60;;;;;;5076676;28;20404;-68
2021/10/02 04:11:55;;;;;;;15.73;11.82;;;14.50;68.50;;;;;;5076723;28;20114;-69
2021/10/02 04:14:21;;;;;;;15.23;11.18;;;14.50;68.40;;;;;;5076491;28;20441;-67
2021/10/02 04:16:47;;;;;;;14.50;11.20;;;14.50;68.80;;;;;;5076844;28;20043;-68
2021/10/02 04:19:12;;;;;;;16.55;11.27;;;14.50;68.80;;;;;;5076880;28;20052;-67
2021/10/02 04:21:38;;;;;;;16.77;12.07;;;14.40;69.00;;;;;;5076722;28;20057;-68
2021/10/02 04:24:04;;;;;;;15.30;11.55;;;14.50;69.60;;;;;;5076481;28;20024;-67
2021/10/02 04:26:30;;;;;;;15.82;12.43;;;14.40;69.50;;;;;;5076306;28;20423;-68
2021/10/02 04:28:56;;;;;;;15.90;11.50;;;14.40;69.60;;;;;;5076461;28;20040;-68
2021/10/02 04:31:22;;;;;;;14.80;11.88;;;14.40;69.70;;;;;;5076512;28;20031;-68
2021/10/02 04:33:47;;;;;;;15.15;11.40;;;14.40;69.90;;;;;;5076293;28;20068;-68
2021/10/02 04:36:14;;;;;;;13.13;11.02;;;14.40;70.30;;;;;;5076174;28;20489;-68
2021/10/02 04:38:41;;;;;;;12.45;11.10;;;14.40;69.80;;;;;;5076241;28;20075;-68
2021/10/02 04:41:07;;;;;;;16.65;11.48;;;14.40;69.60;;;;;;5076480;28;20377;-67
2021/10/02 04:43:34;;;;;;;14.43;12.10;;;14.30;69.40;;;;;;5076168;28;20020;-68
2021/10/02 04:46:00;;;;;;;15.88;12.23;;;14.30;69.50;;;;;;5076173;28;20032;-69
2021/10/02 04:48:27;;;;;;;16.20;12.07;;;14.30;69.50;;;;;;5075828;28;20039;-69
2021/10/02 04:50:53;;;;;;;15.55;11.35;;;14.30;69.40;;;;;;5076087;28;20028;-68
2021/10/02 04:53:19;;;;;;;17.02;12.57;;;14.30;69.80;;;;;;5076036;28;20062;-67
2021/10/02 04:55:44;;;;;;;17.15;11.30;;;14.30;70.70;;;;;;5076045;28;20126;-67
2021/10/02 04:58:10;;;;;;;14.25;11.55;;;14.20;70.70;;;;;;5075859;28;20033;-68
2021/10/02 05:00:36;;;;;;;12.93;11.57;;;14.20;70.70;;;;;;5075853;28;20047;-68
2021/10/02 05:03:02;;;;;;;13.32;10.63;;;14.20;70.80;;;;;;5075703;28;20575;-68
2021/10/02 05:05:28;;;;;;;16.75;11.68;;;14.20;70.90;;;;;;5075902;28;20206;-68
2021/10/02 05:07:53;;;;;;;13.88;11.65;;;14.20;71.20;;;;;;5075787;28;20111;-67
2021/10/02 05:10:19;;;;;;;16.40;11.63;;;14.20;70.90;;;;;;5075556;28;20031;-67
2021/10/02 05:12:45;;;;;;;15.70;12.25;;;14.20;70.70;;;;;;5075664;28;20435;-68
2021/10/02 05:15:11;;;;;;;16.00;11.57;;;14.20;70.40;;;;;;5075427;28;20404;-67
2021/10/02 05:17:36;;;;;;;18.27;12.25;;;14.20;70.30;;;;;;5075611;28;20074;-68
2021/10/02 05:20:04;;;;;;;16.75;11.20;;;14.20;70.70;;;;;;5075278;28;20025;-68
2021/10/02 05:22:29;;;;;;;18.85;10.35;;;14.20;70.00;;;;;;5075368;28;20031;-67
2021/10/02 05:24:55;;;;;;;15.50;10.98;;;14.30;69.60;;;;;;5075489;28;20028;-68
2021/10/02 05:27:21;;;;;;;12.00;10.05;;;14.20;69.60;;;;;;5075272;28;20067;-68
2021/10/02 05:29:48;;;;;;;12.75;9.80;;;14.20;69.60;;;;;;5075110;28;20067;-68
2021/10/02 05:32:14;;;;;;;15.18;10.15;;;14.20;69.60;;;;;;5075039;28;20040;-68
2021/10/02 05:34:39;;;;;;;12.90;10.23;;;14.10;69.60;;;;;;5075038;28;20468;-68
2021/10/02 05:37:05;;;;;;;15.93;10.85;;;14.20;69.80;;;;;;5075435;28;20462;-68
2021/10/02 05:39:31;;;;;;;18.33;10.25;;;14.10;70.30;;;;;;5077041;28;20029;-67
2021/10/02 05:41:57;;;;;;;13.55;10.80;;;14.10;70.20;;;;;;5075083;28;20032;-67
2021/10/02 05:44:22;;;;;;;16.88;10.20;;;14.10;70.20;;;;;;5074865;28;20024;-68
2021/10/02 05:46:48;;;;;;;15.65;10.35;;;14.20;70.70;;;;;;5075019;28;20034;-70
2021/10/02 05:49:14;;;;;;;12.98;10.38;;;14.10;70.40;;;;;;5074961;28;20171;-68
2021/10/02 05:51:39;;;;;;;16.17;10.35;;;14.20;70.60;;;;;;5074940;28;20150;-67
2021/10/02 05:54:05;;;;;;;13.85;10.30;;;14.20;70.30;;;;;;5074721;28;20043;-69
2021/10/02 05:56:31;;;;;;;14.32;10.75;;;14.20;70.20;;;;;;5074955;28;20457;-67
2021/10/02 05:58:56;;;;;;;13.85;10.50;;;14.20;70.30;;;;;;5074682;28;20074;-67
2021/10/02 06:01:22;;;;;;;17.15;9.75;;;14.30;70.30;;;;;;5074648;28;20025;-67
2021/10/02 06:03:48;;;;;;;19.05;10.07;;;14.30;70.80;;;;;;5074783;28;20032;-69
2021/10/02 06:06:14;;;;;;;16.17;9.60;;;14.40;71.00;;;;;;5074869;28;20084;-67
2021/10/02 06:08:40;;;;;;;13.02;9.52;;;14.40;70.70;;;;;;5074524;28;20054;-67
2021/10/02 06:11:06;;;;;;;14.05;9.82;;;14.40;70.60;;;;;;5073130;28;20589;-67
2021/10/02 06:13:33;;;;;;;19.10;10.35;;;14.50;70.50;;;;;;5074332;28;20150;-67
2021/10/02 06:16:00;;;;;;;17.88;10.40;;;14.50;70.60;;;;;;5073679;28;20104;-71
2021/10/02 06:18:26;;;;;;;13.15;9.43;;;14.60;70.60;;;;;;5073962;28;20153;-67
2021/10/02 06:20:51;;;;;;;17.98;9.52;;;14.60;70.70;;;;;;5073728;28;20029;-67
2021/10/02 06:23:17;;;;;;;20.25;9.63;;;14.60;70.80;;;;;;5073626;28;20461;-67
2021/10/02 06:25:43;;;;;;;16.00;10.23;;;14.70;70.70;;;;;;5072032;28;20522;-67
2021/10/02 06:28:09;;;;;;;14.57;9.30;;;14.70;70.40;;;;;;5073281;28;20170;-67
2021/10/02 06:30:34;;;;;;;17.83;9.95;;;14.70;70.60;;;;;;5073639;28;20072;-67
2021/10/02 06:33:00;;;;;;;16.90;9.65;;;14.80;70.50;;;;;;5073636;28;20396;-67
2021/10/02 06:35:26;;;;;;;14.15;10.07;;;14.90;70.40;;;;;;5073156;28;20036;-67
2021/10/02 06:37:52;;;;;;;13.13;9.85;;;14.90;70.50;;;;;;5072510;28;20039;-67
2021/10/02 06:40:17;;;;;;;17.35;10.80;;;15.00;70.90;;;;;;5075555;28;20028;-70
2021/10/02 06:42:43;;;;;;;15.80;9.45;;;15.20;80.50;;;;;;5093563;28;20472;-67
2021/10/02 06:45:09;;;;;;;14.95;10.50;;;15.00;70.10;;;;;;5080629;28;20029;-67
2021/10/02 06:47:35;;;;;;;15.98;9.93;;;15.00;70.10;;;;;;5073179;28;20033;-67
2021/10/02 06:50:01;;;;;;;14.77;10.18;;;15.10;70.40;;;;;;5073337;28;20029;-67
2021/10/02 06:52:28;;;;;;;12.35;9.82;;;15.20;70.30;;;;;;5073275;28;20048;-67
2021/10/02 06:54:54;;;;;;;14.75;10.18;;;15.30;70.40;;;;;;5073471;28;20374;-66
2021/10/02 06:57:21;;;;;;;10.50;8.93;;;15.40;70.40;;;;;;5073174;28;20020;-67
2021/10/02 06:59:46;;;;;;;11.30;9.13;;;15.40;70.30;;;;;;5072832;28;20054;-65
2021/10/02 07:02:12;;;;;;;12.38;9.43;;;15.60;74.60;;;;;;5073099;28;20365;-66
2021/10/02 07:04:38;;;;;;;12.20;9.70;;;15.60;70.50;;;;;;5073627;28;20075;-67
2021/10/02 07:07:04;;;;;;;14.95;9.90;;;15.60;70.10;;;;;;5073325;28;20031;-66
2021/10/02 07:09:30;;;;;;;10.98;9.88;;;15.70;70.70;;;;;;5072685;28;20506;-67
2021/10/02 07:11:56;;;;;;;12.27;9.40;;;15.90;70.30;;;;;;5072963;28;20081;-66
2021/10/02 07:14:22;;;;;;;13.77;9.85;;;16.10;74.30;;;;;;5071624;28;20119;-66
2021/10/02 07:16:48;;;;;;;15.50;10.25;;;16.10;83.70;;;;;;5072701;28;20025;-74
2021/10/02 07:19:15;;;;;;;15.45;10.90;;;16.00;69.50;;;;;;5072403;28;20032;-65
2021/10/02 07:21:41;;;;;;;15.93;10.32;;;16.10;69.60;;;;;;5072296;28;20086;-66
2021/10/02 07:24:07;;;;;;;14.15;11.45;;;16.20;69.50;;;;;;5072808;28;20024;-66
2021/10/02 07:26:33;;;;;;;13.70;11.52;;;16.20;69.20;;;;;;5072348;28;20036;-67
2021/10/02 07:28:59;;;;;;;14.35;11.20;;;16.20;68.90;;;;;;5071949;28;20428;-67
2021/10/02 07:31:24;;;;;;;13.90;11.57;;;16.30;68.80;;;;;;5071543;28;20021;-74
2021/10/02 07:33:50;;;;;;;15.45;12.13;;;16.40;68.50;;;;;;5073065;28;20041;-66
2021/10/02 07:36:17;;;;;;;14.38;12.13;;;16.40;68.30;;;;;;5072975;28;20103;-67
2021/10/02 07:38:44;;;;;;;16.48;12.73;;;16.50;68.10;;;;;;5072874;28;20464;-66
2021/10/02 07:41:11;;;;;;;14.82;11.95;;;;;;;;;;5072890;28;20035;-66
2021/10/02 07:43:40;;;;;;;15.27;12.25;;;16.60;66.40;;;;;;5072670;28;20503;-76
2021/10/02 07:46:07;;;;;;;16.33;12.30;;;;;;;;;;5071018;28;20048;-66
2021/10/02 07:48:33;;;;;;;13.73;12.15;;;16.70;65.50;;;;;;5072673;28;20024;-75
2021/10/02 07:50:59;;;;;;;14.07;11.98;;;16.70;66.00;;;;;;5072839;28;20020;-66
2021/10/02 07:53:29;;;;;;;21.05;12.40;;;16.80;66.30;;;;;;5072908;28;20102;-67
2021/10/02 07:55:55;;;;;;;14.10;12.05;;;16.80;66.70;;;;;;5072931;28;20021;-66
2021/10/02 07:58:22;;;;;;;13.93;11.70;;;16.90;66.20;;;;;;5072884;28;20086;-66
2021/10/02 08:00:52;;;;;;;15.63;11.73;;;16.90;66.10;;;;;;5072804;28;20477;-66
2021/10/02 08:03:19;;;;;;;13.88;10.57;;;17.00;65.90;;;;;;5072842;28;20023;-66
2021/10/02 08:05:46;;;;;;;21.85;11.43;;;17.00;65.70;;;;;;5072928;28;20538;-67
2021/10/02 08:08:14;;;;;;;14.70;11.30;;;17.00;65.70;;;;;;5072859;28;20028;-66
2021/10/02 08:10:39;;;;;;;15.77;11.35;;;17.10;65.70;;;;;;5072911;28;20032;-67
2021/10/02 08:13:06;;;;;;;14.95;11.65;;;17.20;65.20;;;;;;5072184;28;20044;-67
2021/10/02 08:15:32;;;;;;;12.63;11.15;;;17.20;64.70;;;;;;5072630;28;20021;-66
2021/10/02 08:18:01;;;;;;;14.93;11.52;;;17.30;64.40;;;;;;5072867;28;20093;-66
2021/10/02 08:20:29;;;;;;;12.20;10.90;;;17.30;64.20;;;;;;5072634;28;20033;-67
2021/10/02 08:22:56;;;;;;;13.63;10.68;;;17.30;64.00;;;;;;5072537;28;20024;-76
2021/10/02 08:25:22;;;;;;;14.05;11.32;;;17.40;64.10;;;;;;5072777;28;20103;-67
2021/10/02 08:27:48;;;;;;;15.65;10.90;;;17.50;64.20;;;;;;5069861;28;20104;-69
2021/10/02 08:30:16;;;;;;;13.88;11.20;;;17.50;63.90;;;;;;5069116;28;20048;-67
2021/10/02 08:32:42;;;;;;;13.25;10.57;;;17.60;63.70;;;;;;5069628;28;20393;-67
2021/10/02 08:35:08;;;;;;;13.05;10.52;;;17.60;66.20;;;;;;5070770;28;20029;-67
2021/10/02 08:37:34;;;;;;;11.45;9.88;;;17.70;63.60;;;;;;5072553;28;20495;-67
2021/10/02 08:40:01;;;;;;;15.60;10.55;;;17.80;65.90;;;;;;5074589;28;20029;-67
2021/10/02 08:42:27;;;;;;;12.27;10.63;;;17.90;73.40;;;;;;5076188;28;20012;-67
2021/10/02 08:44:53;;;;;;;11.90;10.65;;;17.80;63.40;;;;;;5074622;28;20032;-67
2021/10/02 08:47:23;;;;;;;12.00;10.23;;;17.90;63.80;;;;;;5075924;28;20025;-67
2021/10/02 08:49:50;;;;;;;14.80;10.32;;;18.00;63.10;;;;;;5075950;28;20025;-67
2021/10/02 08:52:18;;;;;;;14.40;10.63;;;18.00;62.70;;;;;;5075896;28;20026;-67
2021/10/02 08:54:48;;;;;;;15.85;10.90;;;18.00;62.50;;;;;;5075912;28;20112;-67
2021/10/02 08:57:18;;;;;;;11.38;10.18;;;18.10;62.50;;;;;;5075898;28;20146;-67
2021/10/02 08:59:45;;;;;;;13.18;9.82;;;18.10;62.30;;;;;;5075786;28;20093;-67
2021/10/02 09:02:10;;;;;;;11.30;9.75;;;18.10;62.10;;;;;;5075829;28;20032;-67
2021/10/02 09:04:37;;;;;;;13.00;9.18;;;18.20;62.20;;;;;;5075848;28;20025;-68
2021/10/02 09:07:04;;;;;;;10.68;9.52;;;18.20;61.80;;;;;;5075732;28;20028;-67
2021/10/02 09:09:31;;;;;;;12.45;10.00;;;18.30;61.50;;;;;;5075559;28;20043;-67
2021/10/02 09:11:57;;;;;;;11.55;10.15;;;18.30;61.80;;;;;;5075709;28;20142;-77
2021/10/02 09:14:23;;;;;;;12.57;10.27;;;18.40;66.80;;;;;;5075483;28;20043;-67
2021/10/02 09:16:48;;;;;;;11.88;9.52;;;18.30;61.90;;;;;;5075816;28;20016;-67
2021/10/02 09:19:14;;;;;;;12.75;9.88;;;18.40;62.20;;;;;;5075482;28;20530;-67
2021/10/02 09:22:03;;;;;;;12.55;10.00;;;18.40;61.70;;;;;;5075429;28;20024;-67
2021/10/02 09:24:33;;;;;;;11.63;10.10;;;18.40;61.90;;;;;;5075727;28;20086;-79
2021/10/02 09:27:00;;;;;;;11.35;10.15;;;18.40;62.00;;;;;;5075488;28;20024;-67
2021/10/02 09:29:37;;;;;;;13.02;9.68;;;18.40;61.90;;;;;;5075406;28;20058;-67
2021/10/02 09:32:04;;;;;;;11.02;9.82;;;18.50;62.00;;;;;;5075433;28;20024;-67
2021/10/02 09:34:30;;;;;;;10.85;8.88;;;18.50;62.30;;;;;;5075386;28;20051;-71
2021/10/02 09:36:56;;;;;;;12.55;9.15;;;18.60;61.70;;;;;;5075611;28;20021;-67
2021/10/02 09:39:40;;;;;;;9.73;8.70;;;18.60;61.30;;;;;;5075282;28;20373;-67
2021/10/02 09:42:19;;;;;;;11.45;9.57;;;18.60;61.10;;;;;;5075199;28;20503;-67
2021/10/02 09:44:45;;;;;;;12.57;9.30;;;18.60;61.40;;;;;;5075415;28;20353;-67
2021/10/02 09:47:18;;;;;;;11.65;9.80;;;18.60;60.80;;;;;;5075276;28;20035;-67
2021/10/02 09:49:47;;;;;;;11.85;9.60;;;18.60;60.90;;;;;;5074476;28;20051;-67
2021/10/02 09:52:40;;;;;;;12.48;9.80;;;18.70;61.10;;;;;;5075097;28;20030;-67
2021/10/02 09:55:23;;;;;;;13.93;9.80;;;18.70;61.10;;;;;;5075144;28;20104;-67
2021/10/02 09:57:51;;;;;;;14.13;9.52;;;18.70;61.60;;;;;;5075005;28;20468;-67
2021/10/02 10:00:19;;;;;;;13.45;9.00;;;18.70;61.40;;;;;;5074811;28;20141;-67
2021/10/02 10:02:45;;;;;;;15.00;10.13;;;18.70;61.60;;;;;;5074797;28;20048;-67
2021/10/02 10:05:12;;;;;;;11.90;9.45;;;18.80;61.40;;;;;;5074584;28;20030;-67
2021/10/02 10:07:38;;;;;;;11.20;9.98;;;18.80;61.50;;;;;;5074619;28;20476;-67
2021/10/02 10:10:11;;;;;;;14.43;9.30;;;18.80;61.40;;;;;;5074281;28;20021;-67
2021/10/02 10:12:39;;;;;;;12.70;8.60;;;18.90;61.20;;;;;;5074308;28;20020;-67
2021/10/02 10:15:07;;;;;;;12.27;9.07;;;18.90;61.30;;;;;;5074806;28;20029;-67
2021/10/02 10:17:33;;;;;;;13.02;8.48;;;19.00;61.60;;;;;;5074521;28;20027;-67
2021/10/02 10:20:09;;;;;;;9.57;7.70;;;19.00;61.40;;;;;;5074410;28;20020;-67
2021/10/02 10:22:36;;;;;;;8.40;7.55;;;19.00;61.70;;;;;;5074961;28;20063;-67
2021/10/02 10:25:08;;;;;;;9.25;7.85;;;19.10;61.60;;;;;;5074526;28;20020;-67
2021/10/02 10:27:43;;;;;;;9.27;8.27;;;19.10;60.90;;;;;;5074271;28;20027;-67
2021/10/02 10:30:16;;;;;;;10.93;8.90;;;19.10;60.40;;;;;;5074032;28;20524;-67
2021/10/02 10:33:06;;;;;;;8.93;7.75;;;19.20;60.50;;;;;;5074254;28;20032;-67
2021/10/02 10:35:41;;;;;;;8.45;7.55;;;19.10;59.60;;;;;;5074259;28;20029;-67
2021/10/02 10:38:09;;;;;;;11.93;8.52;;;19.10;59.90;;;;;;5074356;28;20069;-67
2021/10/02 10:40:36;;;;;;;11.27;8.48;;;19.10;60.50;;;;;;5074013;28;20474;-67
2021/10/02 10:43:02;;;;;;;9.45;8.43;;;19.20;60.20;;;;;;5073891;28;20021;-67
2021/10/02 10:45:29;;;;;;;11.25;9.25;;;19.20;60.10;;;;;;5074026;28;20059;-67
2021/10/02 10:47:57;;;;;;;10.02;8.50;;;19.20;60.60;;;;;;5074147;28;20411;-67
2021/10/02 10:50:24;;;;;;;10.55;8.40;;;19.30;60.40;;;;;;5073854;28;20036;-67
2021/10/02 10:52:51;;;;;;;9.75;7.63;;;19.30;60.60;;;;;;5073634;28;20369;-67
2021/10/02 10:55:22;;;;;;;11.27;8.10;;;19.30;60.40;;;;;;5073742;28;20032;-67
2021/10/02 10:57:53;;;;;;;13.30;8.57;;;19.40;60.60;;;;;;5073677;28;20016;-67
2021/10/02 11:00:39;;;;;;;9.32;8.15;;;19.40;60.00;;;;;;5073765;28;20032;-67
2021/10/02 11:03:10;;;;;;;11.00;8.48;;;19.50;60.00;;;;;;5073356;28;20074;-67
2021/10/02 11:05:35;;;;;;;10.15;7.78;;;19.60;60.00;;;;;;5073659;28;20096;-66
2021/10/02 11:08:13;;;;;;;9.68;8.15;;;19.60;60.10;;;;;;5073702;28;20068;-67
2021/10/02 11:10:44;;;;;;;10.30;8.40;;;19.70;60.70;;;;;;5073327;28;20060;-67
2021/10/02 11:13:16;;;;;;;9.43;7.55;;;19.80;60.40;;;;;;5073282;28;20027;-67
2021/10/02 11:15:43;;;;;;;10.18;7.80;;;19.80;60.70;;;;;;5073422;28;20473;-67
2021/10/02 11:18:40;;;;;;;9.43;7.40;;;19.90;60.50;;;;;;5073429;28;20027;-67
2021/10/02 11:21:06;;;;;;;9.27;7.10;;;19.90;58.90;;;;;;5073211;28;20463;-67
2021/10/02 11:23:58;;;;;;;7.72;6.90;;;20.00;58.80;;;;;;5073075;28;20029;-67
2021/10/02 11:26:46;;;;;;;8.57;7.43;;;20.00;58.90;;;;;;5073146;28;20022;-68
2021/10/02 11:29:19;;;;;;;7.38;6.57;;;20.00;59.10;;;;;;5072791;28;20089;-67
2021/10/02 11:31:45;;;;;;;8.38;7.20;;;20.00;59.50;;;;;;5073216;28;20032;-67
2021/10/02 11:34:24;;;;;;;7.95;7.15;;;20.10;59.60;;;;;;5073282;28;20426;-67
2021/10/02 11:36:55;;;;;;;11.55;7.15;;;20.10;59.20;;;;;;5073381;28;20078;-67
2021/10/02 11:39:27;;;;;;;12.13;6.38;;;20.10;59.00;;;;;;5073119;28;20021;-67
2021/10/02 11:41:59;;;;;;;8.73;6.57;;;20.20;58.90;;;;;;5073345;28;20028;-67
2021/10/02 11:44:30;;;;;;;;;;;20.20;58.90;;;;;;5073518;28;20365;-78
2021/10/02 11:47:34;;;;;;;8.63;5.53;;;20.30;58.70;;;;;;5073225;28;19912;-67
2021/10/02 11:50:28;;;;;;;9.52;6.50;;;20.40;58.70;;;;;;5073281;28;20040;-67
2021/10/02 11:52:57;;;;;;;6.05;5.43;;;20.40;58.70;;;;;;5070836;28;20473;-67
2021/10/02 11:55:40;;;;;;;7.22;6.10;;;20.50;57.10;;;;;;5073054;28;20035;-67
2021/10/02 11:58:11;;;;;;;7.78;6.65;;;20.50;58.50;;;;;;5072871;28;20032;-67
2021/10/02 12:00:38;;;;;;;6.53;5.68;;;20.60;58.00;;;;;;5073033;28;20074;-67
2021/10/02 12:03:06;;;;;;;9.73;6.07;;;20.60;57.50;;;;;;5072878;28;20486;-67
2021/10/02 12:05:33;;;;;;;6.68;5.30;;;20.60;57.20;;;;;;5072853;28;20488;-67
2021/10/02 12:07:59;;;;;;;7.65;5.20;;;20.70;57.10;;;;;;5072950;28;20025;-67
2021/10/02 12:10:26;;;;;;;7.40;5.72;;;20.80;58.20;;;;;;5072801;28;20033;-67
2021/10/02 12:12:55;;;;;;;10.35;5.45;;;20.80;56.70;;;;;;5071475;28;20028;-67
2021/10/02 12:15:34;;;;;;;10.32;4.93;;;20.80;55.90;;;;;;5073839;28;20551;-67
2021/10/02 12:18:00;;;;;;;9.40;4.72;;;20.90;56.10;;;;;;5073762;28;20081;-67
2021/10/02 12:20:37;;;;;;;5.93;4.30;;;20.90;56.80;;;;;;5077315;28;20158;-67
2021/10/02 12:23:04;;;;;;;5.18;4.20;;;20.90;55.70;;;;;;5076745;28;20040;-68
2021/10/02 12:25:30;;;;;;;4.88;3.78;;;20.90;55.10;;;;;;5076663;28;20024;-67
2021/10/02 12:27:55;;;;;;;6.75;3.50;;;21.00;53.90;;;;;;5076809;28;20024;-67
2021/10/02 12:30:21;;;;;;;9.13;3.75;;;21.00;54.40;;;;;;5076384;28;20404;-68
2021/10/02 12:32:58;;;;;;;4.47;3.45;;;21.00;53.50;;;;;;5076481;28;20480;-67
2021/10/02 12:35:24;;;;;;;5.72;3.53;;;21.00;54.70;;;;;;5076532;28;20029;-67
2021/10/02 12:37:51;;;;;;;5.85;3.83;;;21.00;55.20;;;;;;5075276;28;20020;-67
2021/10/02 12:40:18;;;;;;;4.30;3.40;;;21.10;55.50;;;;;;5073419;28;20058;-67
2021/10/02 12:42:56;;;;;;;4.35;3.17;;;21.10;53.80;;;;;;5073599;28;20092;-67
2021/10/02 12:45:25;;;;;;;7.68;3.33;;;21.10;54.70;;;;;;5075291;28;20070;-67
2021/10/02 12:47:54;;;;;;;4.30;3.38;;;21.10;53.90;;;;;;5076071;28;20025;-68
2021/10/02 12:50:31;;;;;;;21.05;4.50;;;21.20;53.90;;;;;;5076136;28;20400;-67
2021/10/02 12:52:58;;;;;;;7.15;3.30;;;21.20;53.80;;;;;;5075961;28;20029;-67
2021/10/02 12:55:24;;;;;;;5.00;3.70;;;21.20;53.80;;;;;;5076118;28;20469;-78
2021/10/02 12:57:51;;;;;;;8.25;3.88;;;21.20;52.50;;;;;;5076102;28;20024;-67
2021/10/02 13:00:36;;;;;;;4.20;3.63;;;21.20;52.50;;;;;;5075721;28;20074;-67
2021/10/02 13:03:04;;;;;;;6.70;3.55;;;21.20;53.40;;;;;;5075739;28;20033;-67
2021/10/02 13:05:34;;;;;;;4.88;3.80;;;21.20;53.10;;;;;;5075828;28;20488;-67
2021/10/02 13:08:12;;;;;;;8.73;3.97;;;21.20;52.70;;;;;;5075588;28;20370;-67
2021/10/02 13:10:38;;;;;;;7.55;3.83;;;21.20;51.70;;;;;;5075469;28;20017;-67
2021/10/02 13:13:10;;;;;;;4.93;3.47;;;21.20;51.80;;;;;;5076138;28;20086;-67
2021/10/02 13:15:40;;;;;;;6.50;3.42;;;21.30;53.20;;;;;;5075224;28;20016;-67
2021/10/02 13:18:17;;;;;;;5.22;4.00;;;21.30;54.00;;;;;;5075743;28;20028;-67
2021/10/02 13:20:43;;;;;;;10.70;4.43;;;21.30;54.20;;;;;;5075719;28;20025;-67
2021/10/02 13:23:15;;;;;;;7.03;4.15;;;21.30;53.90;;;;;;5075239;28;20587;-68
2021/10/02 13:25:53;;;;;;;7.15;3.83;;;21.30;54.60;;;;;;5074150;28;20432;-67
2021/10/02 13:28:26;;;;;;;4.80;3.72;;;21.30;54.90;;;;;;5075643;28;20400;-67
2021/10/02 13:30:54;;;;;;;5.00;3.55;;;21.30;53.30;;;;;;5074967;28;20040;-67
2021/10/02 13:33:20;;;;;;;8.70;3.50;;;21.30;52.80;;;;;;5075339;28;20071;-67
2021/10/02 13:35:50;;;;;;;5.65;3.60;;;21.30;53.10;;;;;;5075343;28;20464;-78